GFA502 OBBI-OMDB
Flight info
| Callsign | GFA502 |
|---|---|
| Flight time | 0h 56m |
| Altitude | 31000 |
| Route | BHR N697 SODAK P559 VUTEB |
| Aircraft | A320/M-SDE3FGHIRWY/LB1 |
Departure
| Time | 2026-04-25 18:53 |
|---|---|
| Airport | Bahrain International Airport (OBBI) |
Arrival
| Time | 2026-04-25 19:49 |
|---|---|
| Airport | Dubai International Airport (OMDB) |
| Time | Latitude | Longitude | Altitude | Speed | Heading |
|---|---|---|---|---|---|
| 2026-04-25 18:24 | 26.26684 | 50.63319 | 21 ft | 0 kts | 213° |
| 2026-04-25 18:42 | 26.26703 | 50.63332 | 23 ft | 3 kts | 210° |
| 2026-04-25 18:42 | 26.26721 | 50.63343 | 22 ft | 3 kts | 204° |
| 2026-04-25 18:43 | 26.26740 | 50.63351 | 21 ft | 3 kts | 191° |
| 2026-04-25 18:43 | 26.26759 | 50.63352 | 24 ft | 3 kts | 159° |
| 2026-04-25 18:43 | 26.26769 | 50.63346 | 23 ft | 1 kts | 123° |
| 2026-04-25 18:45 | 26.26768 | 50.63348 | 23 ft | 3 kts | 123° |
| 2026-04-25 18:46 | 26.26741 | 50.63391 | 21 ft | 7 kts | 124° |
| 2026-04-25 18:46 | 26.26718 | 50.63429 | 22 ft | 6 kts | 123° |
| 2026-04-25 18:46 | 26.26685 | 50.63486 | 21 ft | 20 kts | 122° |
| 2026-04-25 18:46 | 26.26610 | 50.63620 | 22 ft | 16 kts | 122° |
| 2026-04-25 18:47 | 26.26568 | 50.63696 | 21 ft | 10 kts | 113° |
| 2026-04-25 18:47 | 26.26566 | 50.63729 | 21 ft | 0 kts | 76° |
| 2026-04-25 18:48 | 26.26568 | 50.63732 | 21 ft | 0 kts | 71° |
| 2026-04-25 18:48 | 26.26569 | 50.63736 | 21 ft | 4 kts | 64° |
| 2026-04-25 18:49 | 26.26614 | 50.63784 | 21 ft | 10 kts | 53° |
| 2026-04-25 18:49 | 26.26596 | 50.63852 | 21 ft | 12 kts | 123° |
| 2026-04-25 18:49 | 26.26526 | 50.63970 | 21 ft | 23 kts | 123° |
| 2026-04-25 18:49 | 26.26424 | 50.64148 | 20 ft | 31 kts | 122° |
| 2026-04-25 18:50 | 26.26311 | 50.64344 | 19 ft | 33 kts | 123° |
| 2026-04-25 18:50 | 26.26188 | 50.64556 | 20 ft | 28 kts | 122° |
| 2026-04-25 18:50 | 26.26085 | 50.64735 | 21 ft | 26 kts | 123° |
| 2026-04-25 18:50 | 26.26017 | 50.64864 | 23 ft | 16 kts | 106° |
| 2026-04-25 18:51 | 26.26031 | 50.64940 | 20 ft | 0 kts | 56° |
| 2026-04-25 18:51 | 26.26115 | 50.65003 | 18 ft | 17 kts | 9° |
| 2026-04-25 18:51 | 26.26190 | 50.64913 | 17 ft | 18 kts | 299° |
| 2026-04-25 18:52 | 26.26206 | 50.64884 | 17 ft | 6 kts | 303° |
| 2026-04-25 18:52 | 26.26352 | 50.64631 | 15 ft | 75 kts | 303° |
| 2026-04-25 18:52 | 26.26749 | 50.63946 | 17 ft | 133 kts | 302° |
| 2026-04-25 18:52 | 26.27348 | 50.62938 | 92 ft | 170 kts | 306° |
| 2026-04-25 18:53 | 26.28048 | 50.61853 | 626 ft | 177 kts | 309° |
| 2026-04-25 18:53 | 26.28807 | 50.60744 | 1214 ft | 182 kts | 316° |
| 2026-04-25 18:53 | 26.29913 | 50.59962 | 1519 ft | 199 kts | 342° |
| 2026-04-25 18:53 | 26.31307 | 50.59471 | 1739 ft | 222 kts | 347° |
| 2026-04-25 18:54 | 26.34496 | 50.59920 | 2531 ft | 255 kts | 40° |
| 2026-04-25 18:54 | 26.35523 | 50.61534 | 3184 ft | 263 kts | 72° |
| 2026-04-25 18:54 | 26.35781 | 50.63571 | 3938 ft | 269 kts | 85° |
| 2026-04-25 18:55 | 26.35915 | 50.65669 | 4691 ft | 274 kts | 86° |
| 2026-04-25 18:55 | 26.36040 | 50.67810 | 5411 ft | 280 kts | 87° |
| 2026-04-25 18:55 | 26.36168 | 50.69991 | 6161 ft | 284 kts | 86° |
| 2026-04-25 18:55 | 26.36585 | 50.72160 | 6853 ft | 290 kts | 69° |
| 2026-04-25 18:56 | 26.37556 | 50.74145 | 7536 ft | 295 kts | 52° |
| 2026-04-25 18:56 | 26.39018 | 50.75763 | 8230 ft | 299 kts | 36° |
| 2026-04-25 18:56 | 26.40678 | 50.77180 | 8955 ft | 302 kts | 36° |
| 2026-04-25 18:56 | 26.42358 | 50.78621 | 9681 ft | 307 kts | 35° |
| 2026-04-25 18:57 | 26.44062 | 50.80087 | 10289 ft | 315 kts | 36° |
| 2026-04-25 18:57 | 26.45859 | 50.81633 | 10464 ft | 338 kts | 36° |
| 2026-04-25 18:57 | 26.47786 | 50.83291 | 10604 ft | 361 kts | 36° |
| 2026-04-25 18:57 | 26.48462 | 50.83874 | 10683 ft | 367 kts | 36° |
| 2026-04-25 18:58 | 26.51876 | 50.86820 | 11586 ft | 378 kts | 36° |
| 2026-04-25 18:58 | 26.56070 | 50.90455 | 12844 ft | 386 kts | 36° |
| 2026-04-25 18:58 | 26.58198 | 50.92301 | 13483 ft | 389 kts | 36° |
| 2026-04-25 18:59 | 26.62516 | 50.96049 | 14629 ft | 396 kts | 36° |
| 2026-04-25 18:59 | 26.66914 | 50.99858 | 15728 ft | 404 kts | 35° |
| 2026-04-25 19:00 | 26.70631 | 51.03082 | 16648 ft | 410 kts | 36° |
| 2026-04-25 19:00 | 26.72720 | 51.05284 | 17165 ft | 417 kts | 49° |
| 2026-04-25 19:01 | 26.75218 | 51.11180 | 18211 ft | 429 kts | 79° |
| 2026-04-25 19:01 | 26.75414 | 51.14517 | 18653 ft | 432 kts | 95° |
| 2026-04-25 19:01 | 26.74845 | 51.17810 | 19083 ft | 433 kts | 111° |
| 2026-04-25 19:01 | 26.73831 | 51.20993 | 19534 ft | 436 kts | 112° |
| 2026-04-25 19:02 | 26.71753 | 51.27421 | 20470 ft | 443 kts | 112° |
| 2026-04-25 19:02 | 26.70706 | 51.30671 | 20916 ft | 446 kts | 112° |
| 2026-04-25 19:02 | 26.69651 | 51.33949 | 21354 ft | 450 kts | 112° |
| 2026-04-25 19:03 | 26.67881 | 51.39448 | 22086 ft | 455 kts | 113° |
| 2026-04-25 19:03 | 26.66441 | 51.43917 | 22644 ft | 459 kts | 113° |
| 2026-04-25 19:03 | 26.65358 | 51.47282 | 23051 ft | 462 kts | 113° |
| 2026-04-25 19:04 | 26.63171 | 51.54077 | 23774 ft | 468 kts | 113° |
| 2026-04-25 19:04 | 26.62071 | 51.57504 | 24103 ft | 469 kts | 113° |
| 2026-04-25 19:05 | 26.59862 | 51.64380 | 24809 ft | 472 kts | 114° |
| 2026-04-25 19:05 | 26.57623 | 51.71319 | 24953 ft | 479 kts | 114° |
| 2026-04-25 19:05 | 26.56488 | 51.74825 | 24947 ft | 481 kts | 114° |
| 2026-04-25 19:06 | 26.55348 | 51.78336 | 24947 ft | 481 kts | 114° |
| 2026-04-25 19:06 | 26.53075 | 51.85363 | 24945 ft | 481 kts | 114° |
| 2026-04-25 19:06 | 26.51953 | 51.88826 | 24945 ft | 481 kts | 114° |
| 2026-04-25 19:07 | 26.49644 | 51.95824 | 24936 ft | 480 kts | 114° |
| 2026-04-25 19:07 | 26.48473 | 51.99314 | 24946 ft | 481 kts | 114° |
| 2026-04-25 19:08 | 26.46123 | 52.06308 | 24952 ft | 481 kts | 114° |
| 2026-04-25 19:08 | 26.44954 | 52.09808 | 24954 ft | 481 kts | 114° |
| 2026-04-25 19:09 | 26.41469 | 52.20275 | 24949 ft | 481 kts | 114° |
| 2026-04-25 19:09 | 26.40695 | 52.22589 | 24948 ft | 481 kts | 114° |
| 2026-04-25 19:09 | 26.37955 | 52.30745 | 24944 ft | 480 kts | 114° |
| 2026-04-25 19:10 | 26.36782 | 52.34235 | 24929 ft | 480 kts | 114° |
| 2026-04-25 19:10 | 26.35607 | 52.37724 | 24932 ft | 480 kts | 114° |
| 2026-04-25 19:10 | 26.34401 | 52.41190 | 24933 ft | 479 kts | 116° |
| 2026-04-25 19:10 | 26.33126 | 52.44618 | 24935 ft | 479 kts | 117° |
| 2026-04-25 19:11 | 26.31804 | 52.48017 | 24932 ft | 478 kts | 118° |
| 2026-04-25 19:11 | 26.30459 | 52.51404 | 24930 ft | 478 kts | 118° |
| 2026-04-25 19:11 | 26.29115 | 52.54788 | 24928 ft | 477 kts | 117° |
| 2026-04-25 19:11 | 26.27780 | 52.58176 | 24926 ft | 478 kts | 117° |
| 2026-04-25 19:12 | 26.26459 | 52.61568 | 24927 ft | 478 kts | 117° |
| 2026-04-25 19:12 | 26.25149 | 52.64971 | 24926 ft | 478 kts | 117° |
| 2026-04-25 19:12 | 26.23847 | 52.68377 | 24911 ft | 478 kts | 116° |
| 2026-04-25 19:12 | 26.22550 | 52.71782 | 24914 ft | 478 kts | 116° |
| 2026-04-25 19:13 | 26.21253 | 52.75189 | 24915 ft | 478 kts | 116° |
| 2026-04-25 19:13 | 26.19954 | 52.78596 | 24911 ft | 478 kts | 116° |
| 2026-04-25 19:13 | 26.18653 | 52.82000 | 24915 ft | 478 kts | 116° |
| 2026-04-25 19:13 | 26.17348 | 52.85406 | 24917 ft | 478 kts | 116° |
| 2026-04-25 19:14 | 26.16046 | 52.88807 | 24916 ft | 478 kts | 116° |
| 2026-04-25 19:14 | 26.15182 | 52.91061 | 24917 ft | 478 kts | 116° |
| 2026-04-25 19:14 | 26.13431 | 52.95610 | 24919 ft | 478 kts | 116° |
| 2026-04-25 19:14 | 26.12121 | 52.99011 | 24922 ft | 478 kts | 116° |
| 2026-04-25 19:15 | 26.10810 | 53.02411 | 24923 ft | 478 kts | 117° |
| 2026-04-25 19:15 | 26.09504 | 53.05812 | 24909 ft | 478 kts | 116° |
| 2026-04-25 19:15 | 26.08226 | 53.09232 | 24908 ft | 479 kts | 115° |
| 2026-04-25 19:15 | 26.06970 | 53.12665 | 24908 ft | 479 kts | 115° |
| 2026-04-25 19:16 | 26.05725 | 53.16101 | 24909 ft | 479 kts | 115° |
| 2026-04-25 19:16 | 26.04479 | 53.19541 | 24907 ft | 479 kts | 115° |
| 2026-04-25 19:16 | 26.03227 | 53.22978 | 24898 ft | 480 kts | 115° |
| 2026-04-25 19:16 | 26.01971 | 53.26404 | 24676 ft | 477 kts | 115° |
| 2026-04-25 19:17 | 26.00713 | 53.29815 | 24451 ft | 476 kts | 115° |
| 2026-04-25 19:17 | 25.99457 | 53.33212 | 24223 ft | 474 kts | 115° |
| 2026-04-25 19:17 | 25.98205 | 53.36594 | 23992 ft | 473 kts | 115° |
| 2026-04-25 19:17 | 25.96961 | 53.39950 | 23523 ft | 468 kts | 115° |
| 2026-04-25 19:18 | 25.95723 | 53.43282 | 23045 ft | 466 kts | 115° |
| 2026-04-25 19:18 | 25.94489 | 53.46597 | 22576 ft | 462 kts | 115° |
| 2026-04-25 19:18 | 25.93270 | 53.49881 | 22116 ft | 458 kts | 115° |
| 2026-04-25 19:18 | 25.92108 | 53.53113 | 21669 ft | 455 kts | 114° |
| 2026-04-25 19:19 | 25.90979 | 53.56379 | 21219 ft | 451 kts | 113° |
| 2026-04-25 19:19 | 25.89879 | 53.59631 | 20781 ft | 448 kts | 113° |
| 2026-04-25 19:19 | 25.88794 | 53.62855 | 20419 ft | 444 kts | 113° |
| 2026-04-25 19:19 | 25.88062 | 53.65019 | 20177 ft | 442 kts | 113° |
| 2026-04-25 19:20 | 25.86625 | 53.69231 | 19713 ft | 438 kts | 114° |
| 2026-04-25 19:20 | 25.85541 | 53.72385 | 19365 ft | 435 kts | 114° |
| 2026-04-25 19:20 | 25.84459 | 53.75508 | 19020 ft | 432 kts | 114° |
| 2026-04-25 19:20 | 25.83381 | 53.78600 | 18679 ft | 428 kts | 114° |
| 2026-04-25 19:21 | 25.82313 | 53.81654 | 18335 ft | 421 kts | 114° |
| 2026-04-25 19:21 | 25.80220 | 53.87659 | 17580 ft | 414 kts | 114° |
| 2026-04-25 19:21 | 25.79187 | 53.90631 | 17198 ft | 411 kts | 114° |
| 2026-04-25 19:22 | 25.78160 | 53.93582 | 16819 ft | 409 kts | 113° |
| 2026-04-25 19:22 | 25.77137 | 53.96513 | 16450 ft | 406 kts | 113° |
| 2026-04-25 19:22 | 25.75116 | 54.02331 | 15719 ft | 402 kts | 112° |
| 2026-04-25 19:23 | 25.74178 | 54.05248 | 15353 ft | 401 kts | 111° |
| 2026-04-25 19:23 | 25.72430 | 54.11083 | 14875 ft | 397 kts | 110° |
| 2026-04-25 19:23 | 25.71569 | 54.13991 | 14904 ft | 397 kts | 110° |
| 2026-04-25 19:24 | 25.70698 | 54.16899 | 14907 ft | 397 kts | 110° |
| 2026-04-25 19:24 | 25.69915 | 54.19834 | 14814 ft | 397 kts | 102° |
| 2026-04-25 19:24 | 25.69102 | 54.25824 | 13876 ft | 390 kts | 99° |
| 2026-04-25 19:25 | 25.68373 | 54.31740 | 12805 ft | 384 kts | 99° |
| 2026-04-25 19:25 | 25.68008 | 54.34663 | 12278 ft | 381 kts | 99° |
| 2026-04-25 19:25 | 25.67641 | 54.37564 | 11749 ft | 378 kts | 99° |
| 2026-04-25 19:26 | 25.67273 | 54.40438 | 11227 ft | 375 kts | 99° |
| 2026-04-25 19:26 | 25.66902 | 54.43289 | 10699 ft | 373 kts | 99° |
| 2026-04-25 19:26 | 25.66531 | 54.46122 | 10196 ft | 371 kts | 99° |
| 2026-04-25 19:26 | 25.66159 | 54.48948 | 10002 ft | 370 kts | 99° |
| 2026-04-25 19:27 | 25.65798 | 54.51698 | 9980 ft | 351 kts | 99° |
| 2026-04-25 19:27 | 25.65570 | 54.53439 | 9987 ft | 338 kts | 99° |
| 2026-04-25 19:27 | 25.65140 | 54.56734 | 9991 ft | 313 kts | 99° |
| 2026-04-25 19:27 | 25.64829 | 54.59102 | 9988 ft | 308 kts | 99° |
| 2026-04-25 19:28 | 25.64523 | 54.61450 | 9991 ft | 308 kts | 99° |
| 2026-04-25 19:28 | 25.64220 | 54.63767 | 9989 ft | 307 kts | 99° |
| 2026-04-25 19:28 | 25.63920 | 54.66060 | 9986 ft | 293 kts | 99° |
| 2026-04-25 19:28 | 25.63634 | 54.68258 | 9987 ft | 286 kts | 99° |
| 2026-04-25 19:29 | 25.63352 | 54.70432 | 9985 ft | 284 kts | 99° |
| 2026-04-25 19:29 | 25.63070 | 54.72605 | 9986 ft | 285 kts | 99° |
| 2026-04-25 19:29 | 25.62786 | 54.74775 | 9986 ft | 284 kts | 99° |
| 2026-04-25 19:29 | 25.62499 | 54.76940 | 9984 ft | 284 kts | 99° |
| 2026-04-25 19:30 | 25.62210 | 54.79105 | 9989 ft | 284 kts | 99° |
| 2026-04-25 19:30 | 25.61925 | 54.81266 | 9880 ft | 283 kts | 99° |
| 2026-04-25 19:30 | 25.61641 | 54.83424 | 9763 ft | 282 kts | 98° |
| 2026-04-25 19:30 | 25.61348 | 54.85570 | 9637 ft | 282 kts | 102° |
| 2026-04-25 19:31 | 25.60758 | 54.87630 | 9514 ft | 281 kts | 115° |
| 2026-04-25 19:31 | 25.59975 | 54.89612 | 9377 ft | 280 kts | 114° |
| 2026-04-25 19:31 | 25.59203 | 54.91594 | 9259 ft | 280 kts | 114° |
| 2026-04-25 19:31 | 25.58436 | 54.93570 | 9130 ft | 279 kts | 114° |
| 2026-04-25 19:32 | 25.57667 | 54.95544 | 9006 ft | 279 kts | 114° |
| 2026-04-25 19:32 | 25.56896 | 54.97523 | 8887 ft | 280 kts | 114° |
| 2026-04-25 19:32 | 25.56128 | 54.99500 | 8756 ft | 279 kts | 114° |
| 2026-04-25 19:32 | 25.55869 | 55.00167 | 8721 ft | 279 kts | 114° |
| 2026-04-25 19:33 | 25.54584 | 55.03420 | 8518 ft | 277 kts | 117° |
| 2026-04-25 19:33 | 25.53637 | 55.05269 | 8395 ft | 276 kts | 120° |
| 2026-04-25 19:33 | 25.52677 | 55.07111 | 8270 ft | 277 kts | 120° |
| 2026-04-25 19:33 | 25.51723 | 55.08949 | 8146 ft | 275 kts | 120° |
| 2026-04-25 19:34 | 25.50771 | 55.10785 | 8027 ft | 274 kts | 120° |
| 2026-04-25 19:34 | 25.49828 | 55.12608 | 7971 ft | 274 kts | 119° |
| 2026-04-25 19:34 | 25.48880 | 55.14439 | 7982 ft | 274 kts | 120° |
| 2026-04-25 19:34 | 25.47929 | 55.16274 | 7981 ft | 275 kts | 120° |
| 2026-04-25 19:35 | 25.46978 | 55.18110 | 7981 ft | 275 kts | 120° |
| 2026-04-25 19:35 | 25.45984 | 55.19911 | 7978 ft | 274 kts | 127° |
| 2026-04-25 19:35 | 25.44735 | 55.21493 | 7980 ft | 273 kts | 132° |
| 2026-04-25 19:35 | 25.43456 | 55.23054 | 7981 ft | 274 kts | 132° |
| 2026-04-25 19:36 | 25.42182 | 55.24619 | 7980 ft | 274 kts | 132° |
| 2026-04-25 19:36 | 25.40905 | 55.26192 | 7981 ft | 275 kts | 132° |
| 2026-04-25 19:36 | 25.39632 | 55.27758 | 7989 ft | 273 kts | 132° |
| 2026-04-25 19:36 | 25.38364 | 55.29317 | 7989 ft | 272 kts | 132° |
| 2026-04-25 19:37 | 25.37117 | 55.30848 | 7983 ft | 261 kts | 132° |
| 2026-04-25 19:37 | 25.35898 | 55.32291 | 7997 ft | 255 kts | 139° |
| 2026-04-25 19:37 | 25.34433 | 55.33376 | 8005 ft | 254 kts | 153° |
| 2026-04-25 19:37 | 25.32867 | 55.34287 | 8005 ft | 257 kts | 153° |
| 2026-04-25 19:38 | 25.31281 | 55.35213 | 7902 ft | 259 kts | 153° |
| 2026-04-25 19:38 | 25.29680 | 55.36147 | 7741 ft | 260 kts | 152° |
| 2026-04-25 19:38 | 25.28082 | 55.37082 | 7623 ft | 260 kts | 152° |
| 2026-04-25 19:38 | 25.26485 | 55.38017 | 7503 ft | 260 kts | 152° |
| 2026-04-25 19:39 | 25.24888 | 55.38951 | 7386 ft | 259 kts | 152° |
| 2026-04-25 19:39 | 25.23293 | 55.39883 | 7325 ft | 259 kts | 152° |
| 2026-04-25 19:39 | 25.21709 | 55.40812 | 7141 ft | 258 kts | 152° |
| 2026-04-25 19:39 | 25.20118 | 55.41744 | 7000 ft | 259 kts | 152° |
| 2026-04-25 19:40 | 25.18524 | 55.42675 | 6855 ft | 259 kts | 152° |
| 2026-04-25 19:40 | 25.16937 | 55.43603 | 6521 ft | 258 kts | 152° |
| 2026-04-25 19:40 | 25.15353 | 55.44530 | 6171 ft | 258 kts | 152° |
| 2026-04-25 19:40 | 25.13770 | 55.45455 | 5824 ft | 257 kts | 152° |
| 2026-04-25 19:41 | 25.12233 | 55.46366 | 5695 ft | 243 kts | 147° |
| 2026-04-25 19:41 | 25.10984 | 55.47502 | 5519 ft | 226 kts | 129° |
| 2026-04-25 19:41 | 25.10103 | 55.48912 | 5273 ft | 222 kts | 119° |
| 2026-04-25 19:41 | 25.09845 | 55.49384 | 5189 ft | 221 kts | 120° |
| 2026-04-25 19:42 | 25.08503 | 55.51806 | 4738 ft | 220 kts | 120° |
| 2026-04-25 19:42 | 25.07701 | 55.53245 | 4453 ft | 220 kts | 120° |
| 2026-04-25 19:42 | 25.07127 | 55.54783 | 4176 ft | 215 kts | 91° |
| 2026-04-25 19:42 | 25.07402 | 55.56349 | 3888 ft | 207 kts | 55° |
| 2026-04-25 19:43 | 25.08363 | 55.57493 | 3599 ft | 204 kts | 36° |
| 2026-04-25 19:43 | 25.09547 | 55.58313 | 3306 ft | 199 kts | 12° |
| 2026-04-25 19:43 | 25.10881 | 55.58276 | 3061 ft | 192 kts | 340° |
| 2026-04-25 19:43 | 25.12118 | 55.57707 | 2993 ft | 193 kts | 333° |
| 2026-04-25 19:44 | 25.13329 | 55.57051 | 2998 ft | 194 kts | 330° |
| 2026-04-25 19:44 | 25.14337 | 55.56111 | 2997 ft | 194 kts | 306° |
| 2026-04-25 19:44 | 25.15059 | 55.54848 | 2974 ft | 196 kts | 302° |
| 2026-04-25 19:44 | 25.15767 | 55.53569 | 2791 ft | 195 kts | 302° |
| 2026-04-25 19:45 | 25.16471 | 55.52301 | 2577 ft | 193 kts | 303° |
| 2026-04-25 19:45 | 25.17174 | 55.51037 | 2338 ft | 193 kts | 303° |
| 2026-04-25 19:45 | 25.17876 | 55.49775 | 2093 ft | 192 kts | 303° |
| 2026-04-25 19:45 | 25.18564 | 55.48537 | 1877 ft | 186 kts | 303° |
| 2026-04-25 19:46 | 25.19217 | 55.47363 | 1623 ft | 173 kts | 303° |
| 2026-04-25 19:46 | 25.19819 | 55.46279 | 1413 ft | 156 kts | 303° |
| 2026-04-25 19:46 | 25.20361 | 55.45304 | 1218 ft | 144 kts | 303° |
| 2026-04-25 19:46 | 25.20878 | 55.44374 | 1040 ft | 141 kts | 303° |
| 2026-04-25 19:47 | 25.21391 | 55.43451 | 875 ft | 141 kts | 302° |
| 2026-04-25 19:47 | 25.21905 | 55.42527 | 708 ft | 141 kts | 302° |
| 2026-04-25 19:47 | 25.22420 | 55.41601 | 537 ft | 141 kts | 301° |
| 2026-04-25 19:47 | 25.22933 | 55.40671 | 353 ft | 142 kts | 301° |
| 2026-04-25 19:48 | 25.23444 | 55.39739 | 154 ft | 141 kts | 302° |
| 2026-04-25 19:48 | 25.23790 | 55.39134 | 45 ft | 140 kts | 302° |
| 2026-04-25 19:48 | 25.24264 | 55.38294 | 26 ft | 108 kts | 299° |
| 2026-04-25 19:48 | 25.24566 | 55.37728 | 22 ft | 62 kts | 302° |
| 2026-04-25 19:49 | 25.24721 | 55.37448 | 22 ft | 35 kts | 300° |
| 2026-04-25 19:49 | 25.24768 | 55.37311 | 25 ft | 27 kts | 284° |
| 2026-04-25 19:49 | 25.24785 | 55.37088 | 23 ft | 18 kts | 272° |
| 2026-04-25 19:49 | 25.24796 | 55.36962 | 22 ft | 17 kts | 288° |
| 2026-04-25 19:50 | 25.24874 | 55.36724 | 22 ft | 17 kts | 284° |
| 2026-04-25 19:50 | 25.24928 | 55.36600 | 21 ft | 19 kts | 301° |
| 2026-04-25 19:50 | 25.25001 | 55.36472 | 23 ft | 21 kts | 303° |
| 2026-04-25 19:51 | 25.25080 | 55.36332 | 21 ft | 22 kts | 301° |
| 2026-04-25 19:51 | 25.25164 | 55.36180 | 22 ft | 24 kts | 301° |
| 2026-04-25 19:51 | 25.25255 | 55.36020 | 21 ft | 25 kts | 302° |
| 2026-04-25 19:51 | 25.25346 | 55.35860 | 21 ft | 22 kts | 302° |
| 2026-04-25 19:52 | 25.25430 | 55.35709 | 23 ft | 24 kts | 301° |
| 2026-04-25 19:52 | 25.25514 | 55.35559 | 21 ft | 22 kts | 302° |
| 2026-04-25 19:52 | 25.25597 | 55.35412 | 21 ft | 23 kts | 302° |
| 2026-04-25 19:52 | 25.25685 | 55.35254 | 21 ft | 25 kts | 302° |
| 2026-04-25 19:53 | 25.25764 | 55.35114 | 23 ft | 16 kts | 300° |
| 2026-04-25 19:53 | 25.25811 | 55.35025 | 21 ft | 13 kts | 301° |
| 2026-04-25 19:53 | 25.25853 | 55.34949 | 22 ft | 9 kts | 302° |
| 2026-04-25 19:53 | 25.25883 | 55.34896 | 22 ft | 7 kts | 302° |
| 2026-04-25 19:54 | 25.25908 | 55.34852 | 23 ft | 6 kts | 302° |
| 2026-04-25 19:54 | 25.25936 | 55.34803 | 21 ft | 9 kts | 302° |
| 2026-04-25 19:54 | 25.25968 | 55.34745 | 21 ft | 8 kts | 302° |
| 2026-04-25 19:54 | 25.25987 | 55.34711 | 21 ft | 7 kts | 302° |
| 2026-04-25 19:55 | 25.26031 | 55.34633 | 21 ft | 9 kts | 302° |
| 2026-04-25 19:55 | 25.26061 | 55.34580 | 21 ft | 7 kts | 302° |
| 2026-04-25 19:55 | 25.26087 | 55.34535 | 21 ft | 6 kts | 302° |
| 2026-04-25 19:55 | 25.26118 | 55.34480 | 21 ft | 9 kts | 302° |
| 2026-04-25 19:56 | 25.26146 | 55.34430 | 21 ft | 7 kts | 302° |
| 2026-04-25 19:56 | 25.26168 | 55.34390 | 22 ft | 5 kts | 302° |
| 2026-04-25 19:56 | 25.26171 | 55.34358 | 21 ft | 5 kts | 240° |
| 2026-04-25 19:56 | 25.26133 | 55.34332 | 21 ft | 9 kts | 208° |
| 2026-04-25 19:57 | 25.26085 | 55.34302 | 21 ft | 5 kts | 210° |
| 2026-04-25 19:57 | 25.26058 | 55.34284 | 21 ft | 4 kts | 212° |
| 2026-04-25 19:57 | 25.26038 | 55.34269 | 21 ft | 3 kts | 212° |
| 2026-04-25 19:57 | 25.26022 | 55.34258 | 21 ft | 2 kts | 211° |
| 2026-04-25 19:58 | 25.26012 | 55.34251 | 21 ft | 1 kts | 211° |
| 2026-04-25 19:58 | 25.26010 | 55.34250 | 21 ft | 0 kts | 212° |